createdAt,value
2023-05-22T00:00:23.887Z,41.00
2023-05-22T00:02:52.649Z,30.53
2023-05-22T00:05:20.634Z,37.83
2023-05-22T00:07:47.639Z,29.30
2023-05-22T00:10:14.621Z,29.37
2023-05-22T00:12:41.507Z,33.80
2023-05-22T00:15:08.934Z,26.20
2023-05-22T00:17:35.840Z,40.13
2023-05-22T00:20:11.048Z,30.73
2023-05-22T00:22:38.163Z,32.87
2023-05-22T00:25:06.785Z,26.60
2023-05-22T00:27:34.348Z,26.80
2023-05-22T00:30:01.716Z,36.28
2023-05-22T00:32:28.762Z,37.90
2023-05-22T00:34:55.799Z,37.30
2023-05-22T00:37:23.275Z,30.63
2023-05-22T00:39:50.247Z,37.10
2023-05-22T00:42:17.841Z,37.37
2023-05-22T00:44:44.824Z,35.27
2023-05-22T00:47:12.835Z,38.37
2023-05-22T00:49:39.919Z,34.17
2023-05-22T00:52:08.271Z,43.43
2023-05-22T00:54:35.158Z,35.93
2023-05-22T00:57:03.126Z,40.00
2023-05-22T00:59:30.180Z,28.40
2023-05-22T01:01:57.489Z,32.88
2023-05-22T01:04:26.528Z,32.63
2023-05-22T01:06:54.089Z,30.53
2023-05-22T01:09:21.008Z,36.70
2023-05-22T01:12:12.043Z,30.13
2023-05-22T01:14:55.901Z,34.27
2023-05-22T01:17:53.301Z,30.80
2023-05-22T01:20:25.972Z,35.58
2023-05-22T01:23:29.442Z,38.90
2023-05-22T01:26:04.253Z,36.93
2023-05-22T01:28:54.588Z,34.80
2023-05-22T01:31:29.988Z,33.00
2023-05-22T01:33:58.137Z,36.53
2023-05-22T01:36:29.075Z,31.77
2023-05-22T01:38:56.542Z,31.30
2023-05-22T01:41:23.471Z,39.97
2023-05-22T01:43:50.467Z,34.13
2023-05-22T01:46:17.412Z,34.70
2023-05-22T01:48:44.370Z,40.83
2023-05-22T01:51:47.668Z,31.47
2023-05-22T01:54:37.673Z,40.17
2023-05-22T01:57:22.088Z,33.77
2023-05-22T02:00:14.291Z,37.33
2023-05-22T02:02:43.580Z,36.53
2023-05-22T02:05:11.711Z,32.53
2023-05-22T02:07:39.555Z,42.43
2023-05-22T02:10:07.992Z,39.40
2023-05-22T02:12:34.895Z,47.57
2023-05-22T02:15:04.604Z,46.17
2023-05-22T02:17:31.547Z,37.27
2023-05-22T02:19:58.461Z,39.60
2023-05-22T02:22:25.445Z,39.57
2023-05-22T02:24:52.380Z,39.90
2023-05-22T02:27:19.263Z,46.43
2023-05-22T02:29:46.605Z,41.50
2023-05-22T02:32:13.544Z,44.13
2023-05-22T02:34:42.140Z,36.67
2023-05-22T02:37:09.107Z,39.27
2023-05-22T02:39:36.124Z,38.67
2023-05-22T02:42:03.707Z,36.07
2023-05-22T02:44:30.803Z,43.27
2023-05-22T02:46:58.836Z,34.80
2023-05-22T02:49:25.880Z,39.60
2023-05-22T02:51:52.773Z,37.93
2023-05-22T02:54:19.719Z,37.27
2023-05-22T02:56:46.658Z,40.00
2023-05-22T02:59:13.553Z,34.97
2023-05-22T03:01:40.491Z,35.83
2023-05-22T03:04:07.618Z,39.63
2023-05-22T03:06:37.213Z,41.43
2023-05-22T03:09:04.497Z,42.63
2023-05-22T03:11:32.724Z,43.53
2023-05-22T03:13:59.617Z,42.10
2023-05-22T03:16:26.981Z,31.63
2023-05-22T03:19:15.764Z,43.87
2023-05-22T03:21:46.032Z,37.90
2023-05-22T03:24:13.171Z,47.73
2023-05-22T03:26:40.075Z,40.80
2023-05-22T03:29:07.056Z,42.27
2023-05-22T03:31:34.228Z,42.60
2023-05-22T03:34:01.434Z,43.40
2023-05-22T03:36:30.457Z,47.17
2023-05-22T03:38:58.671Z,37.10
2023-05-22T03:41:25.594Z,54.33
2023-05-22T03:43:52.508Z,42.23
2023-05-22T03:46:20.632Z,57.70
2023-05-22T03:48:47.657Z,45.63
2023-05-22T03:51:14.595Z,49.07
2023-05-22T03:53:41.493Z,50.67
2023-05-22T03:56:08.419Z,42.43
2023-05-22T03:58:35.339Z,51.60
2023-05-22T04:01:02.368Z,50.80
2023-05-22T04:03:29.487Z,48.80
2023-05-22T04:05:59.103Z,48.27
2023-05-22T04:08:26.060Z,56.70
2023-05-22T04:10:54.505Z,59.00
2023-05-22T04:13:21.441Z,50.53
2023-05-22T04:15:50.208Z,49.40
2023-05-22T04:18:17.168Z,49.07
2023-05-22T04:20:44.140Z,54.30
2023-05-22T04:23:11.120Z,47.03
2023-05-22T04:25:38.042Z,48.53
2023-05-22T04:28:07.218Z,46.10
2023-05-22T04:30:37.746Z,51.77
2023-05-22T04:33:06.614Z,48.93
2023-05-22T04:35:34.302Z,59.27
2023-05-22T04:38:02.296Z,45.83
2023-05-22T04:40:33.511Z,54.43
2023-05-22T04:43:01.553Z,51.37
2023-05-22T04:45:28.999Z,50.97
2023-05-22T04:47:56.456Z,56.33
2023-05-22T04:50:24.059Z,49.03
2023-05-22T04:52:51.316Z,60.83
2023-05-22T04:55:19.452Z,48.90
2023-05-22T04:57:47.414Z,56.20
2023-05-22T05:00:17.053Z,54.23
2023-05-22T05:02:44.199Z,51.27
2023-05-22T05:05:11.160Z,57.97
2023-05-22T05:07:39.637Z,51.97
2023-05-22T05:10:07.466Z,53.70
2023-05-22T05:12:34.546Z,54.47
2023-05-22T05:15:01.492Z,52.43
2023-05-22T05:17:28.849Z,54.72
2023-05-22T05:19:56.059Z,51.40
2023-05-22T05:22:23.133Z,50.80
2023-05-22T05:24:52.146Z,43.70
2023-05-22T05:27:19.133Z,50.70
2023-05-22T05:29:46.782Z,48.57
2023-05-22T05:32:14.091Z,47.60
2023-05-22T05:34:41.567Z,48.13
2023-05-22T05:37:09.444Z,50.10
2023-05-22T05:39:36.400Z,41.72
2023-05-22T05:42:03.295Z,46.13
2023-05-22T05:44:30.163Z,46.97
2023-05-22T05:46:57.410Z,49.50
2023-05-22T05:49:24.496Z,50.28
2023-05-22T05:51:51.482Z,47.13
2023-05-22T05:54:18.382Z,44.87
2023-05-22T05:56:45.319Z,49.63
2023-05-22T05:59:12.288Z,49.43
2023-05-22T06:01:41.292Z,47.93
2023-05-22T06:04:09.140Z,42.90
2023-05-22T06:06:36.485Z,40.43
2023-05-22T06:09:06.321Z,47.30
2023-05-22T06:11:33.789Z,51.00
2023-05-22T06:14:03.141Z,47.27
2023-05-22T06:16:30.171Z,51.13
2023-05-22T06:18:58.544Z,48.08
2023-05-22T06:21:25.595Z,38.53
2023-05-22T06:23:52.849Z,46.42
2023-05-22T06:26:19.833Z,48.63
2023-05-22T06:28:46.877Z,43.65
2023-05-22T06:31:14.608Z,42.93
2023-05-22T06:33:43.251Z,43.38
2023-05-22T06:36:11.612Z,46.07
2023-05-22T06:38:39.360Z,52.03
2023-05-22T06:41:06.529Z,47.83
2023-05-22T06:43:33.640Z,40.40
2023-05-22T06:46:00.634Z,37.05
2023-05-22T06:48:27.667Z,35.55
2023-05-22T06:50:54.593Z,40.65
2023-05-22T06:53:21.850Z,46.92
2023-05-22T06:55:51.818Z,39.55
2023-05-22T06:58:18.971Z,45.15
2023-05-22T07:00:45.889Z,40.15
2023-05-22T07:03:12.892Z,45.80
2023-05-22T07:05:39.897Z,44.17
2023-05-22T07:08:08.591Z,40.33
2023-05-22T07:10:35.514Z,31.05
2023-05-22T07:13:02.455Z,38.42
2023-05-22T07:15:29.416Z,46.53
2023-05-22T07:17:56.414Z,39.30
2023-05-22T07:20:25.695Z,40.58
2023-05-22T07:22:52.664Z,35.97
2023-05-22T07:25:19.589Z,41.33
2023-05-22T07:27:46.471Z,35.88
2023-05-22T07:30:13.638Z,36.58
2023-05-22T07:32:41.626Z,43.30
2023-05-22T07:35:10.828Z,41.38
2023-05-22T07:37:38.021Z,42.20
2023-05-22T07:40:15.133Z,34.58
2023-05-22T07:42:43.194Z,42.83
2023-05-22T07:45:10.705Z,31.48
2023-05-22T07:47:37.881Z,31.92
2023-05-22T07:50:05.870Z,38.85
2023-05-22T07:52:33.050Z,30.80
2023-05-22T07:55:00.945Z,34.60
2023-05-22T07:57:29.837Z,29.40
2023-05-22T07:59:57.063Z,43.15
2023-05-22T08:02:24.173Z,40.63
2023-05-22T08:04:51.290Z,44.58
2023-05-22T08:07:18.245Z,44.03
2023-05-22T08:09:46.803Z,35.80
2023-05-22T08:12:13.786Z,38.20
2023-05-22T08:14:41.263Z,31.17
2023-05-22T08:17:08.305Z,41.85
2023-05-22T08:19:35.435Z,39.35
2023-05-22T08:22:02.436Z,39.20
2023-05-22T08:24:30.617Z,34.10
2023-05-22T08:27:01.110Z,44.38
2023-05-22T08:29:28.539Z,43.53
2023-05-22T08:31:57.056Z,38.33
2023-05-22T08:34:24.902Z,37.25
2023-05-22T08:36:51.805Z,41.17
2023-05-22T08:39:19.327Z,43.15
2023-05-22T08:41:49.100Z,41.42
2023-05-22T08:44:16.420Z,33.17
2023-05-22T08:46:45.428Z,42.88
2023-05-22T08:49:12.920Z,48.78
2023-05-22T08:51:45.214Z,28.23
2023-05-22T08:54:12.116Z,35.65
2023-05-22T08:56:45.673Z,35.47
2023-05-22T08:59:20.599Z,37.15
2023-05-22T09:01:47.604Z,35.30
2023-05-22T09:04:15.745Z,41.65
2023-05-22T09:06:43.127Z,40.50
2023-05-22T09:09:10.580Z,39.10
2023-05-22T09:11:37.532Z,36.33
2023-05-22T09:14:08.646Z,32.35
2023-05-22T09:16:45.055Z,45.42
2023-05-22T09:19:13.787Z,38.85
2023-05-22T09:21:41.091Z,31.33
2023-05-22T09:24:09.865Z,39.17
2023-05-22T09:26:40.243Z,32.78
2023-05-22T09:29:07.658Z,41.72
2023-05-22T09:31:41.837Z,30.20
2023-05-22T09:34:14.338Z,34.30
2023-05-22T09:36:42.672Z,44.55
2023-05-22T09:39:09.707Z,37.30
2023-05-22T09:41:39.093Z,42.78
2023-05-22T09:44:14.000Z,30.67
2023-05-22T09:46:48.056Z,35.53
2023-05-22T09:49:17.304Z,33.85
2023-05-22T09:51:47.912Z,39.15
2023-05-22T09:54:15.596Z,37.88
2023-05-22T09:56:42.563Z,39.33
2023-05-22T09:59:09.969Z,37.08
2023-05-22T10:01:38.691Z,39.97
2023-05-22T10:04:05.963Z,27.33
2023-05-22T10:06:34.725Z,29.67
2023-05-22T10:09:06.770Z,37.40
2023-05-22T10:11:33.790Z,30.33
2023-05-22T10:14:01.885Z,31.92
2023-05-22T10:16:28.856Z,40.70
2023-05-22T10:18:56.926Z,39.58
2023-05-22T10:21:24.675Z,29.42
2023-05-22T10:23:52.357Z,32.25
2023-05-22T10:26:19.587Z,36.90
2023-05-22T10:28:59.524Z,38.17
2023-05-22T10:32:00.183Z,25.48
2023-05-22T10:34:40.676Z,34.53
2023-05-22T10:37:50.344Z,27.88
2023-05-22T10:40:36.522Z,33.97
2023-05-22T10:43:06.363Z,31.98
2023-05-22T10:45:33.468Z,34.13
2023-05-22T10:48:11.874Z,35.33
2023-05-22T10:50:39.469Z,29.08
2023-05-22T10:53:26.001Z,33.92
2023-05-22T10:55:53.573Z,28.33
2023-05-22T10:58:30.686Z,32.50
2023-05-22T11:01:12.884Z,26.15
2023-05-22T11:04:14.381Z,31.33
2023-05-22T11:06:42.411Z,34.25
2023-05-22T11:09:31.156Z,29.08
2023-05-22T11:12:24.393Z,31.52
2023-05-22T11:14:58.024Z,29.42
2023-05-22T11:17:29.315Z,35.17
2023-05-22T11:20:05.602Z,36.42
2023-05-22T11:23:00.695Z,34.25
2023-05-22T11:25:28.271Z,31.05
2023-05-22T11:27:55.538Z,33.35
2023-05-22T11:30:28.011Z,35.47
2023-05-22T11:32:54.979Z,25.48
2023-05-22T11:35:24.007Z,29.77
2023-05-22T11:37:52.238Z,37.55
2023-05-22T11:40:21.622Z,32.63
2023-05-22T11:42:48.734Z,36.25
2023-05-22T11:45:15.723Z,35.03
2023-05-22T11:47:45.823Z,36.03
2023-05-22T11:50:13.079Z,35.63
2023-05-22T11:52:41.999Z,38.28
2023-05-22T11:55:11.398Z,35.05
2023-05-22T11:57:38.639Z,45.67
2023-05-22T12:00:08.600Z,36.58
2023-05-22T12:02:36.056Z,38.08
2023-05-22T12:05:04.293Z,41.10
2023-05-22T12:07:31.279Z,38.15
2023-05-22T12:09:58.628Z,40.85
2023-05-22T12:12:26.068Z,47.65
2023-05-22T12:14:53.401Z,36.95
2023-05-22T12:17:23.165Z,30.75
2023-05-22T12:19:50.038Z,42.83
2023-05-22T12:22:16.959Z,47.95
2023-05-22T12:24:46.399Z,42.55
2023-05-22T12:27:13.618Z,41.85
2023-05-22T12:29:40.797Z,46.17
2023-05-22T12:32:09.904Z,47.08
2023-05-22T12:34:42.969Z,48.65
2023-05-22T12:37:19.729Z,46.67
2023-05-22T12:39:56.521Z,41.47
2023-05-22T12:42:24.091Z,44.10
2023-05-22T12:44:53.096Z,47.33
2023-05-22T12:47:20.062Z,50.33
2023-05-22T12:49:46.993Z,43.22
2023-05-22T12:52:13.995Z,47.70
2023-05-22T12:54:41.186Z,46.97
2023-05-22T12:57:08.271Z,42.67
2023-05-22T12:59:37.127Z,29.75
2023-05-22T13:02:07.141Z,35.60
2023-05-22T13:04:34.191Z,40.75
2023-05-22T13:07:01.348Z,35.88
2023-05-22T13:09:28.491Z,36.17
2023-05-22T13:11:55.622Z,52.65
2023-05-22T13:14:22.703Z,53.42
2023-05-22T13:16:49.696Z,41.30
2023-05-22T13:19:17.094Z,49.17
2023-05-22T13:21:44.157Z,61.67
2023-05-22T13:24:11.176Z,72.50
2023-05-22T13:26:38.070Z,55.60
2023-05-22T13:29:05.055Z,56.67
2023-05-22T13:31:37.338Z,68.97
2023-05-22T13:34:04.775Z,52.95
2023-05-22T13:36:31.781Z,65.78
2023-05-22T13:38:58.725Z,60.25
2023-05-22T13:41:25.648Z,67.38
2023-05-22T13:43:53.557Z,55.40
2023-05-22T13:46:21.502Z,66.55
2023-05-22T13:48:48.581Z,69.65
2023-05-22T13:51:16.510Z,63.38
2023-05-22T13:53:44.507Z,71.40
2023-05-22T13:56:11.441Z,64.10
2023-05-22T13:58:38.283Z,53.70
2023-05-22T14:01:05.289Z,62.00
2023-05-22T14:03:32.247Z,48.35
2023-05-22T14:06:00.342Z,56.47
2023-05-22T14:08:27.300Z,57.17
2023-05-22T14:10:54.273Z,48.75
2023-05-22T14:13:24.272Z,48.63
2023-05-22T14:15:51.226Z,49.42
2023-05-22T14:18:18.230Z,46.00
2023-05-22T14:20:45.516Z,41.38
2023-05-22T14:23:13.308Z,45.97
2023-05-22T14:25:44.555Z,43.45
2023-05-22T14:28:11.902Z,49.22
2023-05-22T14:30:39.993Z,54.17
2023-05-22T14:33:07.384Z,54.17
2023-05-22T14:35:34.369Z,44.67
2023-05-22T14:38:01.614Z,45.33
2023-05-22T14:40:28.583Z,47.75
2023-05-22T14:42:55.737Z,52.33
2023-05-22T14:45:22.708Z,44.10
2023-05-22T14:47:49.925Z,40.55
2023-05-22T14:50:20.135Z,49.25
2023-05-22T14:52:48.331Z,52.58
2023-05-22T14:55:15.529Z,60.95
2023-05-22T14:57:42.495Z,40.90
2023-05-22T15:00:12.477Z,49.80
2023-05-22T15:02:40.286Z,42.72
2023-05-22T15:05:08.073Z,35.70
2023-05-22T15:07:44.013Z,37.92
2023-05-22T15:10:12.335Z,43.63
2023-05-22T15:12:40.538Z,36.97
2023-05-22T15:15:08.085Z,46.78
2023-05-22T15:17:35.209Z,43.58
2023-05-22T15:20:02.228Z,47.40
2023-05-22T15:22:29.161Z,35.90
2023-05-22T15:25:09.735Z,35.38
2023-05-22T15:27:37.786Z,41.70
2023-05-22T15:30:05.796Z,40.47
2023-05-22T15:32:33.071Z,39.13
2023-05-22T15:35:00.179Z,38.83
2023-05-22T15:37:28.288Z,37.60
2023-05-22T15:39:56.553Z,39.58
2023-05-22T15:42:23.512Z,32.58
2023-05-22T15:44:50.513Z,36.35
2023-05-22T15:47:23.492Z,38.15
2023-05-22T15:49:50.447Z,32.08
2023-05-22T15:52:17.748Z,30.38
2023-05-22T15:54:44.677Z,37.38
2023-05-22T15:57:11.597Z,29.67
2023-05-22T15:59:38.478Z,30.73
2023-05-22T16:02:05.590Z,32.25
2023-05-22T16:04:32.648Z,36.65
2023-05-22T16:06:59.595Z,31.98
2023-05-22T16:09:26.544Z,34.20
2023-05-22T16:11:53.415Z,33.10
2023-05-22T16:14:20.337Z,29.75
2023-05-22T16:16:47.258Z,32.10
2023-05-22T16:19:14.280Z,33.40
2023-05-22T16:21:41.358Z,29.65
2023-05-22T16:24:08.896Z,27.90
2023-05-22T16:26:37.686Z,32.47
2023-05-22T16:29:07.302Z,32.97
2023-05-22T16:31:35.637Z,34.33
2023-05-22T16:34:04.233Z,43.75
2023-05-22T16:36:31.338Z,37.70
2023-05-22T16:38:58.456Z,40.20
2023-05-22T16:41:26.901Z,40.22
2023-05-22T16:43:53.947Z,41.70
2023-05-22T16:46:21.078Z,32.17
2023-05-22T16:48:48.160Z,36.28
2023-05-22T16:51:15.116Z,35.60
2023-05-22T16:53:42.069Z,36.67
2023-05-22T16:56:09.046Z,33.20
2023-05-22T16:58:36.031Z,37.15
2023-05-22T17:01:03.115Z,33.70
2023-05-22T17:03:30.186Z,32.95
2023-05-22T17:05:57.279Z,41.10
2023-05-22T17:08:24.317Z,34.10
2023-05-22T17:10:51.437Z,37.50
2023-05-22T17:13:21.127Z,39.63
2023-05-22T17:15:50.532Z,38.88
2023-05-22T17:18:19.798Z,38.45
2023-05-22T17:20:51.727Z,40.60
2023-05-22T17:23:18.735Z,44.72
2023-05-22T17:25:46.861Z,39.83
2023-05-22T17:28:14.562Z,43.22
2023-05-22T17:30:42.730Z,43.97
2023-05-22T17:33:10.263Z,43.30
2023-05-22T17:35:43.275Z,47.65
2023-05-22T17:38:10.247Z,54.80
2023-05-22T17:40:45.395Z,46.30
2023-05-22T17:43:13.684Z,35.85
2023-05-22T17:45:41.849Z,36.70
2023-05-22T17:48:08.957Z,40.75
2023-05-22T17:50:36.109Z,36.80
2023-05-22T17:53:03.363Z,41.45
2023-05-22T17:55:30.278Z,47.78
2023-05-22T17:57:57.345Z,42.60
2023-05-22T18:00:25.376Z,35.17
2023-05-22T18:02:53.503Z,48.38
2023-05-22T18:05:20.542Z,48.28
2023-05-22T18:07:47.471Z,47.25
2023-05-22T18:10:14.389Z,50.60
2023-05-22T18:12:41.277Z,49.20
2023-05-22T18:15:10.743Z,48.42
2023-05-22T18:17:38.235Z,45.88
2023-05-22T18:20:07.491Z,41.90
2023-05-22T18:22:37.184Z,42.95
2023-05-22T18:25:04.619Z,44.00
2023-05-22T18:27:31.532Z,50.55
2023-05-22T18:29:58.478Z,41.30
2023-05-22T18:32:25.364Z,39.65
2023-05-22T18:34:52.283Z,42.08
2023-05-22T18:37:19.604Z,42.25
2023-05-22T18:39:47.247Z,47.25
2023-05-22T18:42:15.212Z,45.50
2023-05-22T18:44:42.138Z,44.22
2023-05-22T18:47:09.167Z,40.15
2023-05-22T18:49:36.252Z,39.85
2023-05-22T18:52:03.428Z,49.13
2023-05-22T18:54:30.543Z,50.33
2023-05-22T18:56:57.487Z,40.95
2023-05-22T18:59:24.403Z,44.58
2023-05-22T19:01:51.334Z,45.00
2023-05-22T19:04:18.351Z,53.97
2023-05-22T19:06:45.986Z,48.67
2023-05-22T19:09:13.598Z,42.45
2023-05-22T19:11:40.689Z,51.90
2023-05-22T19:14:07.633Z,46.88
2023-05-22T19:16:34.616Z,45.90
2023-05-22T19:19:01.706Z,41.63
2023-05-22T19:21:28.603Z,44.85
2023-05-22T19:23:55.532Z,51.23
2023-05-22T19:26:23.477Z,51.83
2023-05-22T19:28:51.004Z,45.70
2023-05-22T19:31:17.971Z,39.35
2023-05-22T19:33:45.061Z,43.83
2023-05-22T19:36:11.994Z,46.67
2023-05-22T19:38:38.885Z,48.70
2023-05-22T19:41:05.835Z,39.83
2023-05-22T19:43:32.937Z,41.53
2023-05-22T19:45:59.851Z,43.30
2023-05-22T19:48:27.214Z,48.60
2023-05-22T19:50:54.151Z,51.33
2023-05-22T19:53:21.450Z,45.77
2023-05-22T19:55:48.381Z,41.58
2023-05-22T19:58:15.277Z,44.77
2023-05-22T20:00:42.608Z,37.93
2023-05-22T20:03:12.643Z,44.90
2023-05-22T20:05:39.872Z,46.70
2023-05-22T20:08:07.425Z,42.45
2023-05-22T20:10:34.303Z,40.27
2023-05-22T20:13:01.189Z,49.25
2023-05-22T20:15:28.209Z,43.10
2023-05-22T20:17:55.585Z,50.17
2023-05-22T20:20:24.695Z,37.43
2023-05-22T20:22:52.842Z,38.87
2023-05-22T20:25:21.311Z,40.70
2023-05-22T20:27:48.302Z,32.57
2023-05-22T20:30:15.370Z,46.17
2023-05-22T20:32:46.646Z,44.00
2023-05-22T20:35:13.808Z,43.22
2023-05-22T20:37:41.993Z,44.17
2023-05-22T20:40:09.690Z,44.50
2023-05-22T20:42:37.909Z,40.07
2023-05-22T20:45:06.403Z,52.90
2023-05-22T20:47:36.322Z,43.40
2023-05-22T20:50:03.458Z,49.37
2023-05-22T20:52:33.751Z,33.73
2023-05-22T20:55:00.652Z,42.60
2023-05-22T20:57:27.578Z,41.87
2023-05-22T20:59:54.563Z,47.10
2023-05-22T21:02:21.556Z,45.97
2023-05-22T21:04:48.447Z,47.27
2023-05-22T21:07:15.518Z,44.20
2023-05-22T21:09:42.410Z,38.75
2023-05-22T21:12:09.396Z,41.67
2023-05-22T21:14:36.372Z,43.30
2023-05-22T21:17:03.586Z,45.30
2023-05-22T21:19:30.573Z,52.97
2023-05-22T21:21:57.686Z,53.20
2023-05-22T21:24:24.648Z,46.17
2023-05-22T21:26:51.547Z,42.40
2023-05-22T21:29:18.484Z,54.03
2023-05-22T21:31:45.529Z,48.30
2023-05-22T21:34:12.466Z,41.37
2023-05-22T21:36:39.404Z,54.17
2023-05-22T21:39:06.576Z,51.20
2023-05-22T21:41:33.492Z,42.27
2023-05-22T21:44:00.410Z,42.40
2023-05-22T21:46:27.467Z,45.63
2023-05-22T21:48:54.436Z,44.03
2023-05-22T21:51:21.362Z,41.97
2023-05-22T21:53:48.301Z,45.80
2023-05-22T21:56:15.253Z,50.95
2023-05-22T21:58:42.163Z,64.47
2023-05-22T22:01:11.137Z,54.17
2023-05-22T22:03:39.008Z,48.80
2023-05-22T22:06:06.332Z,39.03
2023-05-22T22:08:33.274Z,45.43
2023-05-22T22:11:00.186Z,50.50
2023-05-22T22:13:27.134Z,50.27
2023-05-22T22:15:54.028Z,40.90
2023-05-22T22:18:21.011Z,62.10
2023-05-22T22:20:50.215Z,44.27
2023-05-22T22:23:17.427Z,47.47
2023-05-22T22:25:44.342Z,45.25
2023-05-22T22:28:11.440Z,38.90
2023-05-22T22:30:38.452Z,42.13
2023-05-22T22:33:06.336Z,42.40
2023-05-22T22:35:33.637Z,44.83
2023-05-22T22:38:00.664Z,41.88
2023-05-22T22:40:27.755Z,39.72
2023-05-22T22:42:54.686Z,39.10
2023-05-22T22:45:21.597Z,44.90
2023-05-22T22:47:48.530Z,46.97
2023-05-22T22:50:16.124Z,48.10
2023-05-22T22:52:45.390Z,43.83
2023-05-22T22:55:13.008Z,44.17
2023-05-22T22:57:43.309Z,40.70
2023-05-22T23:00:13.296Z,35.50
2023-05-22T23:02:40.749Z,37.78
2023-05-22T23:05:08.183Z,40.35
2023-05-22T23:07:35.186Z,30.60
2023-05-22T23:10:02.156Z,32.15
2023-05-22T23:12:29.089Z,28.27
2023-05-22T23:14:56.098Z,34.83
2023-05-22T23:17:22.979Z,28.95
2023-05-22T23:19:49.885Z,28.73
2023-05-22T23:22:17.054Z,36.30
2023-05-22T23:24:43.947Z,32.17
2023-05-22T23:27:11.032Z,29.25
2023-05-22T23:29:38.020Z,37.13
2023-05-22T23:32:05.071Z,30.63
2023-05-22T23:34:31.995Z,35.90
2023-05-22T23:36:58.883Z,21.63
2023-05-22T23:39:26.794Z,31.07
2023-05-22T23:41:56.699Z,38.47
2023-05-22T23:44:23.592Z,33.07
2023-05-22T23:46:50.865Z,49.07
2023-05-22T23:49:17.759Z,37.70
2023-05-22T23:51:44.651Z,49.15
2023-05-22T23:54:13.231Z,38.38
2023-05-22T23:56:40.129Z,41.75
2023-05-22T23:59:07.013Z,41.35
